Simi Valley, CA (93062)

11:34 PM PDT on April 23, 2018 (GMT -0700)
Greek Tract | | Change Station

Elev 754 ft 34.27 °N, 118.79 °W | Updated 10 seconds ago

Partly Cloudy
Partly Cloudy
56.1 °F
Feels Like 56.1 °F
N
0.0
Wind Variable Wind from ENE
Gusts 0.0 mph

Today
High -- | Low -- °F
--% Chance of Precip.
Yesterday
High -- | Low -- °F
Precip. -- in
Pressure 30.02 in
Visibility 7.0 miles
Clouds Scattered Clouds 900 ft
Dew Point 52 °F
Humidity 85%
Rainfall 0.00 in
Snow Depth Not available.
6:14 AM 7:33 PM
Waxing Gibbous, 65% visible
METAR KCMA 240555Z AUTO 30003KT 7SM SCT009 14/11 A3000 RMK AO2 SLP166 T01440111 10178 20144 50004
Pressure 30.02 in
Visibility 7.0 miles
Clouds Scattered Clouds 900 ft
Dew Point 52 °F
Humidity 85%
Rainfall 0.00 in
Snow Depth Not available.
6:14 AM 7:33 PM
Waxing Gibbous, 65% visible
METAR KCMA 240555Z AUTO 30003KT 7SM SCT009 14/11 A3000 RMK AO2 SLP166 T01440111 10178 20144 50004

Get Severe Weather Alerts

Thanks for signing up!

Be on the lookout for a verification email in your inbox.

You'll start receiving the daily forecast at 6 AM.

×

10-Day Weather Forecast

Almanac

Astronomy

Apr. 23, 2018 Rise Set
Actual Time
Civil Twilight
Nautical Twilight
Astronomical Twilight
Moon
Length of Visible Light
Length of Day
Tomorrow will be .
, % of the Moon is Illuminated

Today's Extremes

State Highs State Lows

Community

WunderPhotos

Category 6

Welcome to Category 6. This is the collective home for Weather Underground's featured writeups by Dr. Jeff Masters (right), Bob Henson (left), Chris Burt, and other regular contributors.

Nearby

Air Quality

  Air Quality AQ Index Pollutant
Not available.

Snow Depth

Station Depth Elevation

Earthquake Activity

City Distance Mag. Time & Date
Minimum magnitude displayed is 2.5.

Coastal Water Temperatures

Place Temperature

Stations

Nearby Weather Stations

Station Location Temp. Windchill Dew Point Humidity Wind Precip. Elev Updated Type
                   

Watches & Warnings

There are currently no watches in effect.